Etusivu
METAR-TAF:

METAR-TAF

Lentoasemat :

Mullan Pass Vor, Idaho, Yhdysvallat

Leveyspiiri: 47-27-15N, Pituuspiiri: 115-40-11W, korkeus merenpinnasta: 1829 m

Tämänhetkinen sää

Tämä raportti tehtiin 20 minuuttia sitten, kello 10.53 UTC
Tuuli 7 kn lännestä/lounaasta
Lämpötila -1°C
Kosteus 86%
Ilmanpaine 1012 hPa
Näkyvyys: 16.1 km
Hajonneita pilviä 800 ft:n korkeudessa
Pilvistä 1400 ft:n korkeudessa

METAR: KMLP 071053Z AUTO 24007KT 10SM BKN008 OVC014 M01/M03 A2987 RMK AO2 CIG 005V010 SLP087 T10061028 FZRANO

Aika: 04:13 (11:13 UTC)


TAF: puuttuu

Säähavainnot ja -ennusteet yli 4000 lentoasemalta (METAR- ja TAF-raportit).

Käytössä olevat sääasemat on merkitty karttaan keltaisilla ja punaisilla pisteillä.

Aseta hiiri pisteen päälle nähdäksesi sääaseman nimen.

Klikkaa sitten nähdäksesi säähavainnot ja -ennusteet.

Kartan vaihtaminen: klikkaa mustalla rastilla varustettuja vihreitä pisteitä, niin voit zoomata sisään; viivalla varustettua vihreää pistettä, niin voit zoomata ulos tai vihreitä nuolia, niin pääset viereisille kartoille.


METAR-TAF: